Hit Tracker is now ESPN Home Run Tracker! Hit Tracker founder Greg Rybarczyk is now collaborating with the ESPN Stats & Information Group to continue tracking all MLB home runs, and helping baseball fans know "How Far It Really Went!™" Please credit any information on this site to ESPN Stats & Information Group. For more information and analysis on home runs, please contact founder Greg Rybarczyk. E-Mail ESPN Home Run Tracker
Main Page | Ballparks | Park Overlays | Glossary | Highlight Homers | Feedback | Bio | 3 Types of HR's | AAA Home Run Derby Last Updated: July 7, 2015, 12:17 am PST
Welcome to the ESPN Home Run Tracker! Check out the ESPN MLB Scoreboard throughout the 2015 season! Contact us at grybar@hittrackeronline.com.
Season:
Ballpark detail for PETCO Park
Ballpark # of Home Runs HR per game Avg.
True
Distance
Avg.
Speed
Off
Bat
Avg.
Std.
Dist.
PETCO Park 81 2.02 390.7 103.1 390.3

Scatter Plot of Home Runs PETCO Park
 Overlay Ballpark:
Without range rings   With range rings

2015 Season Home Runs for PETCO Park
Click headers to sort
Date Video Path Hitter Hitter
Team
Pitcher Pitcher
Team
INN Ballpark Type/
Luck
True
Dist.
Speed
Off
Bat
Elev.
Angle
Horiz.
Angle
Apex Impact Due To: Std.
Dist.
#
Parks
Wind ^ Temp. Alt.
04/25/15 Video View Ethier, Andre LAD Kennedy, Ian SD 1 PETCO Park ND 383 98.8 36.5 67.7 119 24 -2 0 361 27
04/25/15 Video View Gonzalez, Adrian LAD Kennedy, Ian SD 2 PETCO Park PL/L 345 94.2 38.7 66.3 118 15 -2 0 332 1
04/25/15 Video View Upton, Justin SD McCarthy, Brandon LAD 1 PETCO Park JE/L 360 93.4 34.9 70.4 101 14 -1 0 347 12
05/14/15 Video View Norris, Derek SD Fister, Doug WSH 1 PETCO Park PL 411 102.2 28.8 104.8 87 12 -1 0 401 30
05/14/15 Video View Spangenberg, Cory SD Fister, Doug WSH 2 PETCO Park PL 407 101.6 28.5 75.1 84 11 -1 0 397 26
05/21/15 Video View Bryant, Kris CHC Despaigne, Odrisamer SD 1 PETCO Park JE 417 109.8 18.0 91.0 60 9 1 0 408 0
04/25/15 Video View Myers, Wil SD McCarthy, Brandon LAD 1 PETCO Park JE 412 103.4 24.4 98.9 80 8 0 0 404 12
05/03/15 Video View Blackmon, Charlie COL Shields, James SD 1 PETCO Park PL 348 93.6 35.4 63.7 99 8 -1 0 340 13
06/14/15 Video View Ethier, Andre LAD Shields, James SD 7 PETCO Park PL/L 352 95.9 37.4 66.1 117 8 -1 0 345 17
04/25/15 Video View Uribe, Juan LAD Rearick, Chris SD 5 PETCO Park JE/L 339 95.6 26.8 59.4 58 6 0 0 334 2
04/12/15 Video View Venable, Will SD Petit, Yusmeiro SF 7 PETCO Park PL 365 98.3 31.0 57.4 81 6 -1 0 359 28
05/14/15 Video View Spangenberg, Cory SD Treinen, Blake WSH 4 PETCO Park JE 364 97.9 28.2 115.1 71 5 -1 0 360 11
04/12/15 Video View Nieves, Wil SD Peavy, Jake SF 4 PETCO Park JE 363 100.0 26.5 119.4 62 5 0 0 358 11
06/13/15 Video View Grandal, Yasmani LAD Kennedy, Ian SD 3 PETCO Park PL 392 104.3 35.3 67.6 130 5 -2 0 388 30
05/15/15 Video View Harper, Bryce WSH Kelley, Shawn SD 4 PETCO Park PL 371 97.6 33.0 69.4 103 4 -2 0 369 24
04/25/15 Video View Kendrick, Howard LAD Kennedy, Ian SD 5 PETCO Park JE 408 100.2 27.8 93.1 97 4 -1 0 404 1
04/25/15 Video View Upton, Justin SD McCarthy, Brandon LAD 6 PETCO Park JE 413 101.6 26.1 89.0 89 4 -1 0 410 17
05/20/15 Video View Upton, Justin SD Wada, Tsuyoshi CHC 4 PETCO Park PL 424 113.1 17.7 92.6 56 3 0 -1 422 20
06/16/15 Video View Kemp, Matt SD Scribner, Evan OAK 8 PETCO Park JE 393 105.4 22.8 104.7 65 3 0 0 390 17
04/26/15 Video View Amarista, Alexi SD Baker, Scott LAD 3 PETCO Park PL 401 104.3 27.3 70.2 82 2 -1 0 400 30
04/11/15 Video View Arias, Joaquin SF Shields, James SD 4 PETCO Park JE 365 97.5 28.4 111.0 77 2 0 0 364 12
04/26/15 Video View Guerrero, Alex LAD Morrow, Brandon SD 5 PETCO Park JE 396 103.2 24.3 102.2 72 1 0 0 395 19
06/16/15 Video View Hedges, Austin SD Kazmir, Scott OAK 3 PETCO Park JE 390 102.2 24.4 103.0 71 1 0 0 388 11
04/27/15 Video View Lowrie, Jed HOU Shields, James SD 4 PETCO Park PL 363 99.9 36.7 64.0 124 0 1 0 362 29
04/27/15 Video View Castro, Jason HOU Maurer, Brandon SD 7 PETCO Park JE 393 100.7 26.8 101.6 83 0 0 0 393 19
04/27/15 Video View Rasmus, Colby HOU Mazzoni, Cory SD 9 PETCO Park PL 377 99.1 29.3 70.0 86 0 0 0 377 25
04/28/15 Video View Gattis, Evan HOU Ross, Tyson SD 1 PETCO Park JE 406 101.6 33.3 86.7 129 0 0 0 405 16
04/28/15 Video View Myers, Wil SD Hernandez, Roberto HOU 5 PETCO Park ND 442 110.2 23.3 97.3 82 0 0 0 443 30
04/28/15 Video View Carter, Chris HOU Despaigne, Odrisamer SD 6 PETCO Park JE 368 109.9 20.2 114.0 47 0 0 0 369 9
04/28/15 Video View Springer, George HOU Despaigne, Odrisamer SD 7 PETCO Park ND 403 107.4 27.7 118.5 82 0 0 0 403 30
04/28/15 Video View Upton, Justin SD Hernandez, Roberto HOU 6 PETCO Park JE 367 110.3 20.0 114.8 47 0 0 0 367 7
04/29/15 Video View Rasmus, Colby HOU Cashner, Andrew SD 4 PETCO Park ND 430 111.9 23.9 72.4 76 0 0 0 429 30
05/02/15 Video View Blackmon, Charlie COL Morrow, Brandon SD 3 PETCO Park JE 415 104.2 23.4 91.4 75 0 0 0 415 18
05/03/15 Video View Upton, Justin SD Kendrick, Kyle COL 1 PETCO Park JE 398 100.3 27.9 99.1 92 0 -1 0 399 18
05/03/15 Video View Arenado, Nolan COL Shields, James SD 4 PETCO Park ND 409 109.2 24.5 111.6 73 0 -1 0 409 30
05/03/15 Video View Arenado, Nolan COL Shields, James SD 5 PETCO Park PL 407 103.3 29.8 104.7 104 0 -1 0 407 30
05/03/15 Video View Gyorko, Jedd SD Brown, Brooks COL 6 PETCO Park PL 444 108.0 24.4 89.4 90 0 0 0 444 29
05/03/15 Video View Blackmon, Charlie COL Kimbrel, Craig SD 9 PETCO Park PL 386 104.4 26.5 64.4 73 0 -1 0 387 30
04/12/15 Video View Posey, Buster SF Thayer, Dale SD 7 PETCO Park PL 408 107.2 22.6 101.5 64 0 0 0 408 26
04/13/15 Video View Alonso, Yonder SD De La Rosa, Rubby ARI 2 PETCO Park PL 418 105.3 23.9 83.7 79 0 -1 0 419 25
04/14/15 Video View Upton, Justin SD Hellickson, Jeremy ARI 5 PETCO Park ND 411 108.9 24.9 111.2 74 0 0 0 411 30
04/15/15 Video View Goldschmidt, Paul ARI Morrow, Brandon SD 1 PETCO Park PL 386 101.2 31.1 68.1 99 0 -1 0 387 30
04/15/15 Video View Upton, Justin SD Delgado, Randall ARI 8 PETCO Park JE 389 105.4 22.8 105.2 63 0 0 0 389 21
04/24/15 Video View Crawford, Carl LAD Cashner, Andrew SD 7 PETCO Park ND 419 110.1 24.2 71.6 74 0 -1 0 419 30
05/28/15 Video View Marte, Starling PIT Kennedy, Ian SD 3 PETCO Park PL 382 102.1 28.9 116.4 83 0 -1 0 383 30
05/28/15 Video View Kang, Jung Ho PIT Kennedy, Ian SD 1 PETCO Park ND 450 113.8 23.4 102.1 82 0 -1 0 451 30
05/28/15 Video View Polanco, Gregory PIT Kennedy, Ian SD 2 PETCO Park JE 410 106.5 21.9 97.3 67 0 0 0 410 20
05/29/15 Video View Norris, Derek SD Scahill, Rob PIT 9 PETCO Park PL 417 103.2 27.9 96.5 100 0 -2 0 419 29
06/13/15 Video View Upton, Justin SD Greinke, Zack LAD 8 PETCO Park PL 410 103.6 25.2 98.7 82 0 -1 0 410 25
06/15/15 Video View Vogt, Stephen OAK Mazzoni, Cory SD 8 PETCO Park PL 380 107.2 23.0 65.4 59 0 0 0 381 26
06/16/15 Video View Zobrist, Ben OAK Cashner, Andrew SD 6 PETCO Park PL 358 98.0 30.6 58.2 81 0 -1 0 359 29
06/27/15 Video View Upton, Justin SD Hellickson, Jeremy ARI 5 PETCO Park JE 363 97.4 30.4 65.1 84 0 0 0 363 25
06/28/15 Video View Kemp, Matt SD Anderson, Chase ARI 1 PETCO Park ND 408 105.4 30.2 112.0 101 0 1 0 408 30
06/28/15 Video View Norris, Derek SD Anderson, Chase ARI 4 PETCO Park JE 377 104.8 22.1 106.3 57 0 0 0 377 8
06/28/15 Video View Norris, Derek SD Anderson, Chase ARI 6 PETCO Park PL 395 104.8 25.0 108.4 72 0 0 0 395 30
06/30/15 Video View Zunino, Mike SEA Kennedy, Ian SD 3 PETCO Park PL 401 107.1 22.7 104.4 66 0 0 0 401 30
06/30/15 Video View Miller, Brad SEA Kennedy, Ian SD 4 PETCO Park ND 420 106.0 28.1 75.0 97 0 0 0 420 30
07/01/15 Video View Cruz, Nelson SEA Mateo, Marcos SD 9 PETCO Park PL 351 102.0 39.5 112.4 150 0 0 0 351 14
05/17/15 Video View Upton, Justin SD Roark, Tanner WSH 8 PETCO Park PL 382 113.8 19.8 114.0 49 -1 0 0 383 24
05/19/15 Video View Coghlan, Chris CHC Shields, James SD 3 PETCO Park JE 412 103.5 24.9 84.5 85 -1 0 0 413 20
05/03/15 Video View Norris, Derek SD Kendrick, Kyle COL 4 PETCO Park PL 389 102.6 27.7 111.3 83 -1 -1 0 389 30
05/31/15 Video View Middlebrooks, Will SD Locke, Jeff PIT 3 PETCO Park JE 358 100.9 24.9 115.7 62 -1 0 0 359 10
06/01/15 Video View Murphy, Daniel NYM Cashner, Andrew SD 5 PETCO Park JE 359 96.6 29.7 68.2 83 -1 -1 0 362 18
06/12/15 Video View Barmes, Clint SD Kershaw, Clayton LAD 7 PETCO Park PL 381 100.0 31.6 109.9 102 -1 -1 0 383 30
06/28/15 Video View Castillo, Welington ARI Despaigne, Odrisamer SD 2 PETCO Park PL 371 105.6 22.9 114.4 58 -1 0 -1 372 18
06/28/15 Video View Lamb, Jake ARI Garces, Frank SD 6 PETCO Park PL 395 108.7 23.6 66.2 66 -1 0 0 395 30
05/17/15 Video View Harper, Bryce WSH Thayer, Dale SD 7 PETCO Park PL 372 103.8 25.1 116.2 67 -2 -1 0 375 29
05/19/15 Video View Coghlan, Chris CHC Kimbrel, Craig SD 9 PETCO Park PL 421 104.2 26.1 92.9 96 -2 -1 0 424 26
04/26/15 Video View Norris, Derek SD Baker, Scott LAD 7 PETCO Park PL 359 98.0 30.5 118.8 85 -2 -1 0 362 25
05/21/15 Video View Russell, Addison CHC Thayer, Dale SD 7 PETCO Park PL 392 103.4 28.6 111.8 89 -2 -1 0 396 30
06/02/15 Video View Norris, Derek SD Syndergaard, Noah NYM 4 PETCO Park PL 374 99.2 34.2 107.0 120 -2 -2 0 378 24
07/01/15 Video View Cano, Robinson SEA Shields, James SD 6 PETCO Park PL 389 100.9 27.2 104.7 84 -2 0 0 390 26
05/19/15 Video View Fowler, Dexter CHC Shields, James SD 3 PETCO Park PL 406 103.2 27.9 78.4 97 -3 -1 0 411 29
05/01/15 Video View Stubbs, Drew COL Kennedy, Ian SD 5 PETCO Park PL 384 100.0 31.4 106.3 106 -3 0 0 388 30
05/31/15 Video View Polanco, Gregory PIT Despaigne, Odrisamer SD 7 PETCO Park PL 416 103.9 28.7 81.3 106 -3 -1 0 420 29
06/12/15 Video View Norris, Derek SD Garcia, Yimi LAD 7 PETCO Park PL 361 98.6 32.9 119.2 98 -3 -1 0 365 30
05/01/15 Video View Arenado, Nolan COL Kennedy, Ian SD 6 PETCO Park PL 366 97.2 29.8 108.5 89 -5 0 0 370 18
06/28/15 Video View Peralta, David ARI Despaigne, Odrisamer SD 3 PETCO Park PL 399 102.4 30.1 76.0 106 -6 1 0 404 30
05/17/15 Video View Gyorko, Jedd SD Solis, Sammy WSH 9 PETCO Park PL 406 102.9 28.1 96.0 108 -10 -1 -1 417 29
05/17/15 Video View Espinosa, Danny WSH Kennedy, Ian SD 5 PETCO Park PL 383 102.1 28.7 74.7 102 -15 -1 0 400 30
05/17/15 Video View Upton, Justin SD Strasburg, Stephen WSH 3 PETCO Park PL 390 104.5 30.9 102.8 126 -23 -1 0 416 30


About HitTracker | Contact Us
© 2006-2015 HitTrackerOnline